createdAt,value
2023-02-03T00:02:36.047Z,100974.09
2023-02-03T00:05:37.729Z,100966.13
2023-02-03T00:08:39.282Z,100961.69
2023-02-03T00:11:40.761Z,100954.56
2023-02-03T00:14:42.232Z,100937.59
2023-02-03T00:17:43.743Z,100936.03
2023-02-03T00:20:45.193Z,100928.91
2023-02-03T00:23:46.642Z,100923.63
2023-02-03T00:26:48.100Z,100919.34
2023-02-03T00:29:49.618Z,100918.50
2023-02-03T00:32:51.109Z,100917.63
2023-02-03T00:35:52.576Z,100915.91
2023-02-03T00:38:54.447Z,100932.31
2023-02-03T00:41:55.943Z,100929.03
2023-02-03T00:44:57.464Z,100932.59
2023-02-03T00:47:58.901Z,100921.91
2023-02-03T00:51:00.364Z,100923.75
2023-02-03T00:54:01.947Z,100923.03
2023-02-03T00:57:04.409Z,100934.84
2023-02-03T01:00:07.689Z,100924.19
2023-02-03T01:03:10.902Z,100917.91
2023-02-03T01:06:15.294Z,100925.31
2023-02-03T01:09:16.854Z,100928.16
2023-02-03T01:12:18.364Z,100914.75
2023-02-03T01:15:19.909Z,100920.28
2023-02-03T01:18:21.379Z,100933.81
2023-02-03T01:21:25.169Z,100924.72
2023-02-03T01:24:26.670Z,100930.28
2023-02-03T01:27:28.231Z,100921.13
2023-02-03T01:30:31.156Z,100925.56
2023-02-03T01:33:32.657Z,100934.59
2023-02-03T01:36:35.328Z,100930.88
2023-02-03T01:39:37.352Z,100922.75
2023-02-03T01:42:38.871Z,100924.47
2023-02-03T01:45:40.402Z,100930.00
2023-02-03T01:48:42.037Z,100931.72
2023-02-03T01:51:45.292Z,100929.00
2023-02-03T01:54:50.205Z,100921.75
2023-02-03T01:58:13.540Z,100907.34
2023-02-03T02:01:15.218Z,100901.19
2023-02-03T02:04:17.335Z,100886.81
2023-02-03T02:07:18.858Z,100897.66
2023-02-03T02:10:20.611Z,100891.34
2023-02-03T02:13:22.990Z,100873.28
2023-02-03T02:16:39.668Z,100864.25
2023-02-03T02:20:04.451Z,100838.06
2023-02-03T02:23:18.078Z,100852.72
2023-02-03T02:26:28.635Z,100858.13
2023-02-03T02:29:50.469Z,100838.31
2023-02-03T02:33:00.811Z,100818.53
2023-02-03T02:36:36.829Z,100801.56
2023-02-03T02:40:03.455Z,100813.41
2023-02-03T02:43:10.264Z,100811.97
2023-02-03T02:46:16.988Z,100819.94
2023-02-03T02:49:30.711Z,100828.06
2023-02-03T02:52:37.229Z,100843.59
2023-02-03T02:55:40.601Z,100827.47
2023-02-03T02:58:46.493Z,100815.94
2023-02-03T03:01:48.321Z,100798.00
2023-02-03T03:04:51.164Z,100792.72
2023-02-03T03:07:59.123Z,100798.13
2023-02-03T03:11:02.278Z,100803.69
2023-02-03T03:14:06.720Z,100792.88
2023-02-03T03:17:11.631Z,100804.69
2023-02-03T03:20:18.726Z,100809.25
2023-02-03T03:23:31.961Z,100794.84
2023-02-03T03:26:57.722Z,100791.13
2023-02-03T03:30:06.649Z,100807.53
2023-02-03T03:33:09.394Z,100796.84
2023-02-03T03:36:30.632Z,100794.13
2023-02-03T03:39:51.171Z,100778.91
2023-02-03T03:43:04.360Z,100776.19
2023-02-03T03:46:16.659Z,100765.38
2023-02-03T03:49:20.820Z,100759.25
2023-02-03T03:52:28.024Z,100751.97
2023-02-03T03:55:32.948Z,100764.66
2023-02-03T03:58:37.653Z,100767.50
2023-02-03T04:01:40.059Z,100754.13
2023-02-03T04:04:43.227Z,100747.84
2023-02-03T04:07:46.382Z,100753.09
2023-02-03T04:10:47.910Z,100753.41
2023-02-03T04:13:49.385Z,100750.69
2023-02-03T04:16:50.846Z,100752.38
2023-02-03T04:19:52.343Z,100746.13
2023-02-03T04:22:53.912Z,100755.81
2023-02-03T04:25:55.375Z,100755.81
2023-02-03T04:28:56.833Z,100758.41
2023-02-03T04:31:58.420Z,100754.69
2023-02-03T04:34:59.986Z,100750.28
2023-02-03T04:38:01.435Z,100745.72
2023-02-03T04:41:02.935Z,100739.44
2023-02-03T04:44:04.617Z,100753.81
2023-02-03T04:47:06.083Z,100743.84
2023-02-03T04:50:08.089Z,100762.78
2023-02-03T04:53:09.635Z,100752.13
2023-02-03T04:56:11.182Z,100757.53
2023-02-03T04:59:12.680Z,100743.84
2023-02-03T05:02:14.189Z,100745.84
2023-02-03T05:05:15.769Z,100740.41
2023-02-03T05:08:17.351Z,100735.88
2023-02-03T05:11:19.127Z,100744.00
2023-02-03T05:14:21.072Z,100727.91
2023-02-03T05:17:22.569Z,100734.16
2023-02-03T05:20:24.077Z,100722.63
2023-02-03T05:23:25.742Z,100719.78
2023-02-03T05:26:27.216Z,100713.66
2023-02-03T05:29:28.671Z,100721.63
2023-02-03T05:32:30.244Z,100714.50
2023-02-03T05:35:31.746Z,100693.84
2023-02-03T05:38:33.274Z,100693.13
2023-02-03T05:41:53.004Z,100701.25
2023-02-03T05:44:54.466Z,100701.53
2023-02-03T05:47:55.958Z,100700.69
2023-02-03T05:50:57.826Z,100706.13
2023-02-03T05:53:59.296Z,100699.84
2023-02-03T05:57:00.914Z,100688.16
2023-02-03T06:00:02.689Z,100684.47
2023-02-03T06:03:13.279Z,100692.41
2023-02-03T06:06:15.627Z,100673.22
2023-02-03T06:09:17.175Z,100680.31
2023-02-03T06:12:18.713Z,100685.44
2023-02-03T06:15:20.245Z,100681.59
2023-02-03T06:18:22.065Z,100677.75
2023-02-03T06:21:23.669Z,100684.88
2023-02-03T06:24:25.194Z,100691.84
2023-02-03T06:27:26.918Z,100686.28
2023-02-03T06:30:28.826Z,100697.97
2023-02-03T06:33:30.950Z,100680.56
2023-02-03T06:36:32.439Z,100675.03
2023-02-03T06:39:33.916Z,100682.13
2023-02-03T06:42:35.659Z,100678.44
2023-02-03T06:45:37.182Z,100667.59
2023-02-03T06:48:38.701Z,100676.59
2023-02-03T06:51:40.244Z,100680.31
2023-02-03T06:54:41.885Z,100668.59
2023-02-03T06:57:48.048Z,100673.03
2023-02-03T07:00:49.490Z,100667.75
2023-02-03T07:03:51.002Z,100661.47
2023-02-03T07:06:52.497Z,100657.94
2023-02-03T07:09:53.966Z,100658.06
2023-02-03T07:12:55.444Z,100673.47
2023-02-03T07:15:56.952Z,100651.81
2023-02-03T07:18:58.654Z,100648.38
2023-02-03T07:22:00.172Z,100647.66
2023-02-03T07:25:01.925Z,100654.09
2023-02-03T07:28:03.467Z,100669.47
2023-02-03T07:31:05.173Z,100648.13
2023-02-03T07:34:06.727Z,100641.00
2023-02-03T07:37:08.283Z,100638.28
2023-02-03T07:40:11.765Z,100620.34
2023-02-03T07:43:13.530Z,100636.00
2023-02-03T07:46:15.289Z,100618.06
2023-02-03T07:49:16.832Z,100607.38
2023-02-03T07:52:18.695Z,100630.03
2023-02-03T07:55:21.597Z,100623.91
2023-02-03T07:58:23.099Z,100621.38
2023-02-03T08:01:25.214Z,100629.63
2023-02-03T08:04:26.695Z,100635.88
2023-02-03T08:07:28.156Z,100611.69
2023-02-03T08:10:30.004Z,100610.81
2023-02-03T08:13:31.879Z,100614.53
2023-02-03T08:16:33.539Z,100616.53
2023-02-03T08:19:35.260Z,100607.56
2023-02-03T08:22:37.117Z,100619.22
2023-02-03T08:25:38.581Z,100634.75
2023-02-03T08:28:40.061Z,100597.75
2023-02-03T08:31:42.387Z,100604.28
2023-02-03T08:34:44.348Z,100580.06
2023-02-03T08:37:45.826Z,100626.06
2023-02-03T08:40:47.367Z,100627.94
2023-02-03T08:43:49.330Z,100623.50
2023-02-03T08:46:52.428Z,100630.63
2023-02-03T08:49:53.973Z,100627.50
2023-02-03T08:52:55.553Z,100628.22
2023-02-03T08:55:57.065Z,100620.97
2023-02-03T08:58:58.564Z,100643.88
2023-02-03T09:02:01.048Z,100632.91
2023-02-03T09:05:02.726Z,100627.50
2023-02-03T09:08:04.517Z,100624.66
2023-02-03T09:11:10.768Z,100647.56
2023-02-03T09:14:12.276Z,100647.28
2023-02-03T09:17:13.827Z,100645.16
2023-02-03T09:20:15.603Z,100639.31
2023-02-03T09:23:17.095Z,100639.03
2023-02-03T09:26:19.025Z,100645.03
2023-02-03T09:29:20.646Z,100644.88
2023-02-03T09:32:22.122Z,100654.53
2023-02-03T09:35:23.806Z,100642.75
2023-02-03T09:38:26.476Z,100647.88
2023-02-03T09:42:01.459Z,100648.59
2023-02-03T09:45:12.223Z,100662.97
2023-02-03T09:48:24.562Z,100645.72
2023-02-03T09:51:40.593Z,100645.59
2023-02-03T09:54:45.663Z,100644.75
2023-02-03T09:57:57.031Z,100645.47
2023-02-03T10:01:06.175Z,100652.56
2023-02-03T10:04:27.811Z,100666.09
2023-02-03T10:07:38.940Z,100649.88
2023-02-03T10:11:13.639Z,100647.03
2023-02-03T10:14:37.645Z,100622.69
2023-02-03T10:17:47.077Z,100637.19
2023-02-03T10:20:56.507Z,100637.63
2023-02-03T10:24:00.396Z,100641.16
2023-02-03T10:27:01.937Z,100643.63
2023-02-03T10:30:10.851Z,100657.81
2023-02-03T10:33:17.790Z,100661.13
2023-02-03T10:36:30.173Z,100659.97
2023-02-03T10:39:51.282Z,100660.53
2023-02-03T10:43:11.421Z,100663.97
2023-02-03T10:46:34.119Z,100684.34
2023-02-03T10:49:35.755Z,100677.91
2023-02-03T10:52:37.310Z,100701.13
2023-02-03T10:55:38.870Z,100690.00
2023-02-03T10:58:48.159Z,100677.91
2023-02-03T11:01:49.946Z,100675.19
2023-02-03T11:05:16.480Z,100674.78
2023-02-03T11:08:18.072Z,100677.31
2023-02-03T11:11:24.792Z,100681.47
2023-02-03T11:14:26.392Z,100687.72
2023-02-03T11:17:30.491Z,100692.84
2023-02-03T11:20:35.437Z,100695.72
2023-02-03T11:23:44.275Z,100699.25
2023-02-03T11:27:00.288Z,100705.53
2023-02-03T11:30:31.293Z,100715.50
2023-02-03T11:33:34.185Z,100719.34
2023-02-03T11:36:36.001Z,100724.75
2023-02-03T11:39:39.027Z,100727.47
2023-02-03T11:42:43.639Z,100718.50
2023-02-03T11:45:49.372Z,100722.91
2023-02-03T11:49:18.295Z,100719.19
2023-02-03T11:52:57.984Z,100721.75
2023-02-03T11:56:18.362Z,100717.38
2023-02-03T11:59:43.142Z,100727.31
2023-02-03T12:03:11.801Z,100735.31
2023-02-03T12:06:28.343Z,100738.72
2023-02-03T12:09:40.188Z,100744.56
2023-02-03T12:13:05.418Z,100742.41
2023-02-03T12:16:19.120Z,100737.13
2023-02-03T12:19:42.547Z,100736.72
2023-02-03T12:23:03.869Z,100749.53
2023-02-03T12:26:11.538Z,100767.63
2023-02-03T12:29:18.051Z,100766.06
2023-02-03T12:32:29.044Z,100779.31
2023-02-03T12:35:39.079Z,100770.59
2023-02-03T12:38:43.456Z,100773.16
2023-02-03T12:42:10.241Z,100762.88
2023-02-03T12:45:18.748Z,100759.91
2023-02-03T12:48:26.106Z,100760.44
2023-02-03T12:51:42.732Z,100758.44
2023-02-03T12:54:53.375Z,100762.00
2023-02-03T12:58:00.035Z,100781.53
2023-02-03T13:01:05.253Z,100764.09
2023-02-03T13:04:14.181Z,100757.69
2023-02-03T13:07:25.124Z,100765.53
2023-02-03T13:10:48.604Z,100777.09
2023-02-03T13:14:03.720Z,100771.50
2023-02-03T13:17:17.377Z,100772.91
2023-02-03T13:20:25.673Z,100775.63
2023-02-03T13:23:27.865Z,100775.31
2023-02-03T13:26:38.246Z,100784.03
2023-02-03T13:29:50.285Z,100787.72
2023-02-03T13:33:25.816Z,100785.44
2023-02-03T13:36:49.368Z,100786.13
2023-02-03T13:40:21.835Z,100793.44
2023-02-03T13:43:38.146Z,100798.13
2023-02-03T13:46:41.140Z,100794.59
2023-02-03T13:49:47.584Z,100800.00
2023-02-03T13:53:29.386Z,100808.84
2023-02-03T13:56:31.995Z,100818.69
2023-02-03T13:59:42.986Z,100809.25
2023-02-03T14:02:52.503Z,100823.81
2023-02-03T14:05:56.302Z,100825.34
2023-02-03T14:09:00.628Z,100827.09
2023-02-03T14:12:33.345Z,100838.78
2023-02-03T14:15:36.397Z,100829.94
2023-02-03T14:18:46.262Z,100848.91
2023-02-03T14:21:52.904Z,100846.22
2023-02-03T14:24:58.658Z,100851.50
2023-02-03T14:28:10.479Z,100860.03
2023-02-03T14:31:17.464Z,100867.16
2023-02-03T14:34:27.748Z,100862.59
2023-02-03T14:37:32.756Z,100854.31
2023-02-03T14:40:56.742Z,100863.31
2023-02-03T14:44:20.483Z,100869.56
2023-02-03T14:47:34.098Z,100872.44
2023-02-03T14:50:52.136Z,100880.41
2023-02-03T14:54:11.085Z,100885.84
2023-02-03T14:57:21.521Z,100884.16
2023-02-03T15:00:34.925Z,100878.72
2023-02-03T15:03:41.594Z,100877.72
2023-02-03T15:06:46.331Z,100893.84
2023-02-03T15:09:51.475Z,100881.97
2023-02-03T15:12:56.145Z,100883.72
2023-02-03T15:16:01.156Z,100875.41
2023-02-03T15:19:08.859Z,100871.84
2023-02-03T15:22:23.620Z,100877.13
2023-02-03T15:25:27.242Z,100896.13
2023-02-03T15:28:30.430Z,100905.25
2023-02-03T15:31:37.176Z,100909.53
2023-02-03T15:34:44.608Z,100918.50
2023-02-03T15:37:53.709Z,100935.50
2023-02-03T15:40:58.651Z,100927.34
2023-02-03T15:44:06.659Z,100914.53
2023-02-03T15:47:25.450Z,100926.09
2023-02-03T15:50:34.095Z,100934.97
2023-02-03T15:53:58.717Z,100939.22
2023-02-03T15:57:06.526Z,100945.66
2023-02-03T16:00:20.148Z,100950.22
2023-02-03T16:03:44.443Z,100961.94
2023-02-03T16:06:48.990Z,100965.50
2023-02-03T16:09:58.578Z,100971.63
2023-02-03T16:13:19.820Z,100975.91
2023-02-03T16:16:23.773Z,100979.47
2023-02-03T16:19:28.728Z,100972.88
2023-02-03T16:22:35.709Z,100987.34
2023-02-03T16:25:37.223Z,100997.31
2023-02-03T16:28:58.320Z,101002.75
2023-02-03T16:32:18.941Z,101001.03
2023-02-03T16:35:39.432Z,100998.19
2023-02-03T16:39:05.635Z,101007.00
2023-02-03T16:42:33.995Z,101008.88
2023-02-03T16:45:54.115Z,101007.31
2023-02-03T16:49:14.357Z,101004.59
2023-02-03T16:52:15.987Z,100993.91
2023-02-03T16:55:17.439Z,101003.88
2023-02-03T16:58:19.145Z,101022.88
2023-02-03T17:01:20.684Z,101011.19
2023-02-03T17:04:22.268Z,101014.91
2023-02-03T17:07:23.816Z,101014.91
2023-02-03T17:10:26.255Z,101033.91
2023-02-03T17:13:27.732Z,101048.31
2023-02-03T17:16:30.425Z,101039.88
2023-02-03T17:19:32.724Z,101047.88
2023-02-03T17:22:34.830Z,101044.31
2023-02-03T17:25:37.114Z,101046.75
2023-02-03T17:28:40.745Z,101046.56
2023-02-03T17:31:42.299Z,101036.59
2023-02-03T17:34:44.310Z,101044.03
2023-02-03T17:37:45.788Z,101047.88
2023-02-03T17:54:06.196Z,101051.31
2023-02-03T17:57:07.761Z,101059.28
2023-02-03T18:00:10.548Z,101064.41
2023-02-03T18:03:14.989Z,101075.28
2023-02-03T18:06:19.844Z,101075.16
2023-02-03T18:09:21.332Z,101092.44
2023-02-03T18:12:23.237Z,101098.00
2023-02-03T18:15:24.748Z,101094.28
2023-02-03T18:18:26.607Z,101097.00
2023-02-03T18:21:28.487Z,101098.56
2023-02-03T18:24:30.563Z,101110.28
2023-02-03T18:27:32.045Z,101109.16
2023-02-03T18:30:33.821Z,101126.28
2023-02-03T18:33:36.864Z,101125.13
2023-02-03T18:39:45.010Z,101133.28
2023-02-03T18:42:46.571Z,101138.84
2023-02-03T18:45:48.150Z,101133.28
2023-02-03T18:48:50.563Z,101138.72
2023-02-03T18:51:52.069Z,101137.84
2023-02-03T18:54:53.559Z,101155.84
2023-02-03T18:57:55.075Z,101159.41
2023-02-03T19:00:56.746Z,101142.13
2023-02-03T19:04:00.321Z,101144.69
2023-02-03T19:07:02.030Z,101163.13
2023-02-03T19:10:03.745Z,101172.13
2023-02-03T19:13:05.209Z,101172.13
2023-02-03T19:16:07.352Z,101160.41
2023-02-03T19:19:08.942Z,101176.44
2023-02-03T19:22:12.653Z,101164.44
2023-02-03T19:25:14.334Z,101164.13
2023-02-03T19:28:20.266Z,101180.97
2023-02-03T19:31:25.672Z,101184.28
2023-02-03T19:34:28.485Z,101199.13
2023-02-03T19:37:30.053Z,101211.56
2023-02-03T19:40:31.845Z,101219.28
2023-02-03T19:43:33.572Z,101222.56
2023-02-03T19:46:37.233Z,101238.56
2023-02-03T19:49:38.939Z,101237.56
2023-02-03T19:52:40.455Z,101243.69
2023-02-03T19:55:43.228Z,101250.00
2023-02-03T19:58:50.434Z,101255.56
2023-02-03T20:01:51.991Z,101261.00
2023-02-03T20:04:53.625Z,101271.56
2023-02-03T20:07:55.320Z,101272.28
2023-02-03T20:10:56.948Z,101274.88
2023-02-03T20:13:58.516Z,101285.56
2023-02-03T20:17:00.207Z,101284.59
2023-02-03T20:20:01.967Z,101280.00
2023-02-03T20:23:03.661Z,101298.00
2023-02-03T20:26:05.322Z,101303.31
2023-02-03T20:29:07.152Z,101300.72
2023-02-03T20:32:09.389Z,101299.88
2023-02-03T20:35:12.565Z,101289.84
2023-02-03T20:38:15.907Z,101299.75
2023-02-03T20:41:19.082Z,101298.72
2023-02-03T20:44:20.642Z,101306.88
2023-02-03T20:47:22.870Z,101307.59
2023-02-03T20:50:31.674Z,101326.31
2023-02-03T20:53:36.793Z,101334.47
2023-02-03T20:56:38.251Z,101334.47
2023-02-03T20:59:39.822Z,101332.59
2023-02-03T21:03:01.236Z,101328.91
2023-02-03T21:06:11.607Z,101333.75
2023-02-03T21:09:16.139Z,101337.59
2023-02-03T21:12:17.655Z,101333.31
2023-02-03T21:15:23.081Z,101339.75
2023-02-03T21:18:24.635Z,101341.88
2023-02-03T21:21:39.344Z,101345.31
2023-02-03T21:24:45.489Z,101348.31
2023-02-03T21:27:47.204Z,101355.59
2023-02-03T21:30:48.862Z,101355.59
2023-02-03T21:33:51.554Z,101357.31
2023-02-03T21:36:53.454Z,101365.59
2023-02-03T21:39:54.926Z,101359.28
2023-02-03T21:42:56.947Z,101374.72
2023-02-03T21:45:58.607Z,101369.47
2023-02-03T21:49:02.127Z,101371.28
2023-02-03T21:52:03.774Z,101387.72
2023-02-03T21:55:15.371Z,101405.59
2023-02-03T21:58:25.865Z,101390.44
2023-02-03T22:01:35.383Z,101397.75
2023-02-03T22:04:36.888Z,101407.72
2023-02-03T22:07:38.338Z,101417.88
2023-02-03T22:10:39.821Z,101429.72
2023-02-03T22:13:42.246Z,101433.44
2023-02-03T22:16:44.574Z,101440.56
2023-02-03T22:19:46.091Z,101436.28
2023-02-03T22:22:47.599Z,101444.56
2023-02-03T22:25:49.376Z,101443.69
2023-02-03T22:28:51.099Z,101452.00
2023-02-03T22:31:52.721Z,101465.56
2023-02-03T22:34:54.189Z,101466.53
2023-02-03T22:38:11.675Z,101464.84
2023-02-03T22:41:16.598Z,101474.97
2023-02-03T22:44:18.807Z,101474.22
2023-02-03T22:47:20.336Z,101481.53
2023-02-03T22:50:34.350Z,101483.38
2023-02-03T22:53:39.295Z,101505.22
2023-02-03T22:56:40.790Z,101512.50
2023-02-03T22:59:42.273Z,101513.50
2023-02-03T23:02:43.764Z,101522.78
2023-02-03T23:05:45.290Z,101528.47
2023-02-03T23:08:46.758Z,101528.59
2023-02-03T23:11:48.247Z,101532.16
2023-02-03T23:14:50.578Z,101545.00
2023-02-03T23:17:52.121Z,101556.88
2023-02-03T23:20:53.718Z,101561.56
2023-02-03T23:23:55.243Z,101573.41
2023-02-03T23:26:56.746Z,101585.41
2023-02-03T23:29:58.256Z,101596.38
2023-02-03T23:32:59.775Z,101611.88
2023-02-03T23:36:01.285Z,101621.88
2023-02-03T23:39:02.875Z,101628.16
2023-02-03T23:42:04.545Z,101650.88
2023-02-03T23:45:08.155Z,101650.13
2023-02-03T23:48:09.757Z,101659.28
2023-02-03T23:51:11.313Z,101650.50
2023-02-03T23:54:12.827Z,101665.34
2023-02-03T23:57:14.397Z,101656.47
